Time;durP1;ratioP1;P1;durP2;ratioP2;P2;SDS_P1;SDS_P2;PMS_P1;PMS_P2;Temp;Humidity;BMP_temperature;BMP_pressure;BME280_temperature;BME280_humidity;BME280_pressure;Samples;Min_cycle;Max_cycle;Signal;HPM_P1;HPM_P2
2022/05/14 00:00:32;;;;;;;6.70;5.20;;;;;;;11.29;62.82;100124.06;107335;1268;108603;-70
2022/05/14 00:03:07;;;;;;;11.70;5.00;;;;;;;11.31;62.85;100125.05;106442;1268;138319;-69
2022/05/14 00:05:41;;;;;;;8.00;5.30;;;;;;;11.36;62.82;100124.16;106370;1268;96512;-70
2022/05/14 00:08:15;;;;;;;8.20;5.60;;;;;;;11.34;62.62;100125.09;106451;1268;110722;-70
2022/05/14 00:13:38;;;;;;;8.00;5.60;;;;;;;11.30;62.55;100127.86;107924;1268;107395;-71
2022/05/14 00:16:11;;;;;;;8.80;5.30;;;;;;;11.23;62.57;100126.03;107740;1268;137617;-71
2022/05/14 00:18:44;;;;;;;8.30;5.40;;;;;;;11.17;62.52;100132.52;107366;1268;96462;-70
2022/05/14 00:21:16;;;;;;;6.50;5.40;;;;;;;11.10;62.69;100129.65;107801;1268;138084;-70
2022/05/14 00:23:48;;;;;;;7.60;5.00;;;;;;;11.01;62.65;100131.88;107912;1268;108811;-71
2022/05/14 00:26:21;;;;;;;7.10;5.20;;;;;;;10.97;62.79;100130.50;107929;1268;107597;-71
2022/05/14 00:28:53;;;;;;;8.40;5.00;;;;;;;10.96;62.94;100131.73;107761;1268;138786;-71
2022/05/14 00:31:25;;;;;;;7.70;5.10;;;;;;;10.97;63.05;100133.60;107960;1268;95005;-70
2022/05/14 00:33:58;;;;;;;8.40;5.80;;;;;;;10.95;63.13;100134.38;107819;1268;137475;-71
2022/05/14 00:36:30;;;;;;;7.10;5.70;;;;;;;10.98;63.28;100130.10;107041;1268;110282;-70
2022/05/14 00:39:03;;;;;;;9.40;6.70;;;;;;;10.96;63.30;100127.71;106481;1268;109161;-70
2022/05/14 00:41:36;;;;;;;10.80;7.50;;;;;;;10.91;63.45;100133.11;106480;1270;96465;-70
2022/05/14 00:44:09;;;;;;;11.00;8.00;;;;;;;10.86;63.62;100128.41;107905;1268;95037;-71
2022/05/14 00:46:48;;;;;;;10.60;7.60;;;;;;;10.85;63.85;100134.36;107827;1268;138270;-71
2022/05/14 00:49:24;;;;;;;9.10;6.90;;;;;;;10.80;64.03;100137.31;107831;1268;108300;-70
2022/05/14 00:51:56;;;;;;;9.70;6.60;;;;;;;10.79;64.20;100139.61;107745;1268;139392;-70
2022/05/14 00:54:33;;;;;;;10.60;7.10;;;;;;;10.79;64.24;100138.05;107943;1268;95672;-71
2022/05/14 00:57:11;;;;;;;7.40;6.70;;;;;;;10.78;64.43;100135.49;107852;1267;138255;-69
2022/05/14 00:59:44;;;;;;;9.70;7.10;;;;;;;10.76;64.52;100141.79;107889;1268;110997;-71
2022/05/14 01:02:17;;;;;;;10.70;6.70;;;;;;;10.77;64.72;100140.38;106790;1268;108685;-70
2022/05/14 01:04:49;;;;;;;8.10;6.60;;;;;;;10.78;64.79;100140.54;107278;1268;139604;-70
2022/05/14 01:07:23;;;;;;;8.80;6.60;;;;;;;10.75;64.81;100139.39;106423;1271;96471;-72
2022/05/14 01:10:03;;;;;;;8.70;6.50;;;;;;;10.70;64.77;100130.55;106346;1271;138585;-72
2022/05/14 01:12:37;;;;;;;6.70;5.90;;;;;;;10.70;65.02;100128.77;107928;1268;109978;-71
2022/05/14 01:15:18;;;;;;;6.90;5.60;;;;;;;10.70;65.06;100129.31;107821;1267;138614;-71
2022/05/14 01:17:51;;;;;;;8.30;5.90;;;;;;;10.73;65.17;100119.27;106540;1270;107205;-70
2022/05/14 01:20:23;;;;;;;7.70;5.90;;;;;;;10.74;65.08;100123.76;106441;1270;96448;-71
2022/05/14 01:23:05;;;;;;;9.00;6.30;;;;;;;10.71;65.00;100125.09;107660;1268;137581;-71
2022/05/14 01:28:34;;;;;;;9.80;7.40;;;;;;;10.62;65.38;100127.35;107562;1268;139537;-71
2022/05/14 01:31:06;;;;;;;9.60;7.10;;;;;;;10.56;65.30;100125.60;106477;1269;108815;-71
2022/05/14 01:33:38;;;;;;;7.70;6.80;;;;;;;10.52;65.29;100123.66;107824;1268;138804;-71
2022/05/14 01:36:11;;;;;;;8.60;6.80;;;;;;;10.50;65.48;100131.03;107289;1268;96475;-71
2022/05/14 01:38:45;;;;;;;8.20;6.10;;;;;;;10.50;65.63;100133.33;106397;1270;111082;-72
2022/05/14 01:41:17;;;;;;;9.30;6.60;;;;;;;10.51;65.60;100126.65;107408;1267;138853;-70
2022/05/14 01:43:51;;;;;;;9.30;7.30;;;;;;;10.48;65.57;100128.87;106530;1268;109084;-70
2022/05/14 01:46:24;;;;;;;8.70;6.90;;;;;;;10.43;65.63;100128.34;107799;1268;137850;-71
2022/05/14 01:48:56;;;;;;;11.60;7.50;;;;;;;10.41;65.70;100123.00;107935;1268;94676;-70
2022/05/14 01:51:29;;;;;;;8.60;7.70;;;;;;;10.39;65.75;100119.25;107844;1267;138096;-70
2022/05/14 01:54:01;;;;;;;11.10;7.90;;;;;;;10.34;65.82;100119.23;107914;1268;108667;-70
2022/05/14 01:56:33;;;;;;;11.40;7.30;;;;;;;10.30;65.80;100123.05;107853;1270;106831;-71
2022/05/14 01:59:06;;;;;;;8.00;6.80;;;;;;;10.27;65.86;100132.88;106935;1268;139587;-70
2022/05/14 02:01:40;;;;;;;9.00;6.50;;;;;;;10.26;65.93;100128.90;106415;1268;96392;-70
2022/05/14 02:04:15;;;;;;;7.30;6.60;;;;;;;10.22;65.86;100126.23;107819;1268;137714;-70
2022/05/14 02:06:48;;;;;;;8.60;6.40;;;;;;;10.20;65.99;100127.13;107904;1268;108894;-70
2022/05/14 02:09:20;;;;;;;9.30;7.00;;;;;;;10.16;65.79;100134.91;107774;1268;138106;-71
2022/05/14 02:11:56;;;;;;;8.30;7.00;;;;;;;10.13;66.05;100137.44;106972;1267;96647;-70
2022/05/14 02:14:33;;;;;;;9.10;7.20;;;;;;;10.09;65.98;100128.22;106543;1268;96592;-70
2022/05/14 02:17:06;;;;;;;9.60;6.60;;;;;;;10.03;66.03;100125.27;106286;1268;137469;-70
2022/05/14 02:19:39;;;;;;;11.50;7.00;;;;;;;9.99;66.19;100124.34;107851;1270;108965;-71
2022/05/14 02:22:12;;;;;;;13.20;6.50;;;;;;;9.94;66.22;100119.11;107766;1268;140184;-70
2022/05/14 02:24:44;;;;;;;7.80;6.40;;;;;;;9.94;66.30;100118.42;107864;1268;94944;-70
2022/05/14 02:27:16;;;;;;;13.20;6.20;;;;;;;9.94;66.39;100129.38;107805;1268;138752;-70
2022/05/14 02:29:54;;;;;;;9.60;6.40;;;;;;;9.94;66.32;100128.17;107831;1270;111190;-70
2022/05/14 02:32:27;;;;;;;9.10;6.50;;;;;;;9.94;66.37;100131.80;106568;1268;109051;-71
2022/05/14 02:35:00;;;;;;;8.80;6.60;;;;;;;9.93;66.55;100134.27;107605;1268;138343;-71
2022/05/14 02:37:33;;;;;;;7.30;6.10;;;;;;;9.88;66.47;100134.60;106466;1268;96507;-70
2022/05/14 02:40:08;;;;;;;8.90;6.30;;;;;;;9.86;66.53;100137.41;106345;1268;137402;-71
2022/05/14 02:42:40;;;;;;;9.10;6.10;;;;;;;9.84;66.63;100128.47;106617;1271;111342;-70
2022/05/14 02:45:13;;;;;;;7.80;5.70;;;;;;;9.84;66.68;100130.38;106243;1269;138376;-70
2022/05/14 02:47:46;;;;;;;10.60;5.50;;;;;;;9.88;66.81;100123.14;106544;1269;108659;-70
2022/05/14 02:50:20;;;;;;;7.50;5.50;;;;;;;9.92;66.68;100120.05;106311;1268;96488;-70
2022/05/14 02:52:53;;;;;;;11.10;5.90;;;;;;;9.97;66.58;100117.80;107838;1268;137916;-71
2022/05/14 02:55:25;;;;;;;7.00;6.10;;;;;;;10.01;66.56;100116.81;107884;1268;110205;-71
2022/05/14 02:57:58;;;;;;;9.50;6.20;;;;;;;10.05;66.51;100120.15;107804;1268;138047;-71
2022/05/14 03:00:30;;;;;;;11.20;6.20;;;;;;;10.10;66.40;100123.82;107884;1268;107649;-71
2022/05/14 03:03:03;;;;;;;9.30;6.30;;;;;;;10.14;66.31;100127.33;107880;1269;95030;-71
2022/05/14 03:05:35;;;;;;;11.20;6.40;;;;;;;10.14;66.12;100124.91;106629;1268;96503;-71
2022/05/14 03:08:08;;;;;;;8.00;5.40;;;;;;;10.16;66.11;100127.45;107899;1268;110169;-72
2022/05/14 03:10:42;;;;;;;8.00;5.40;;;;;;;10.18;66.14;100129.27;107818;1268;138851;-72
2022/05/14 03:13:14;;;;;;;8.90;5.50;;;;;;;10.24;66.11;100124.24;106826;1268;108145;-71
2022/05/14 03:15:46;;;;;;;8.90;5.70;;;;;;;10.29;65.98;100125.48;107799;1268;138772;-72
2022/05/14 03:18:18;;;;;;;11.50;5.60;;;;;;;10.33;65.90;100127.45;107883;1268;94924;-71
2022/05/14 03:20:50;;;;;;;9.50;5.80;;;;;;;10.40;65.85;100130.16;107953;1268;111384;-72
2022/05/14 03:23:23;;;;;;;12.00;6.00;;;;;;;10.42;65.76;100131.15;107803;1268;139504;-70
2022/05/14 03:25:55;;;;;;;9.20;5.90;;;;;;;10.48;65.65;100125.04;107876;1270;107769;-70
2022/05/14 03:28:28;;;;;;;10.90;6.20;;;;;;;10.53;65.55;100126.42;107713;1270;137612;-70
2022/05/14 03:31:00;;;;;;;10.70;6.20;;;;;;;10.51;65.36;100129.27;107944;1268;94573;-70
2022/05/14 03:33:33;;;;;;;10.00;5.60;;;;;;;10.52;65.44;100135.33;107802;1268;138378;-70
2022/05/14 03:36:06;;;;;;;7.40;5.40;;;;;;;10.52;65.40;100140.18;107902;1268;107555;-70
2022/05/14 03:38:38;;;;;;;7.00;5.00;;;;;;;10.55;65.36;100134.86;107899;1268;107620;-70
2022/05/14 03:41:11;;;;;;;8.40;5.00;;;;;;;10.60;65.46;100131.58;106874;1270;140416;-71
2022/05/14 03:43:43;;;;;;;9.60;5.40;;;;;;;10.68;65.40;100132.35;106369;1268;96494;-71
2022/05/14 03:46:17;;;;;;;6.90;5.00;;;;;;;10.73;65.24;100140.16;106324;1270;138078;-71
2022/05/14 03:48:49;;;;;;;9.20;5.60;;;;;;;10.71;65.09;100141.98;107875;1271;106681;-71
2022/05/14 03:51:22;;;;;;;10.10;5.50;;;;;;;10.72;65.21;100142.27;106931;1270;137967;-70
2022/05/14 03:53:54;;;;;;;9.60;5.80;;;;;;;10.75;65.20;100144.63;107038;1269;96576;-71
2022/05/14 03:56:27;;;;;;;9.00;5.20;;;;;;;10.75;65.07;100146.36;106462;1271;96448;-70
2022/05/14 03:59:00;;;;;;;9.20;5.70;;;;;;;10.71;65.11;100145.63;106615;1271;137538;-71
2022/05/14 04:01:32;;;;;;;10.10;5.10;;;;;;;10.70;65.26;100143.91;106435;1269;108961;-70
2022/05/14 04:04:05;;;;;;;8.60;4.70;;;;;;;10.73;65.20;100140.16;106823;1268;138522;-71
2022/05/14 04:06:37;;;;;;;10.90;5.20;;;;;;;10.78;65.26;100138.27;106555;1268;96453;-71
2022/05/14 04:09:10;;;;;;;8.50;4.90;;;;;;;10.81;65.07;100139.54;107532;1268;138771;-70
2022/05/14 04:11:43;;;;;;;7.80;4.60;;;;;;;10.88;65.05;100138.77;106429;1268;111748;-71
2022/05/14 04:14:15;;;;;;;7.50;5.20;;;;;;;10.94;64.93;100131.10;107937;1268;108998;-71
2022/05/14 04:16:47;;;;;;;8.00;4.70;;;;;;;10.98;64.97;100130.45;107815;1268;137713;-72
2022/05/14 04:19:20;;;;;;;8.30;5.30;;;;;;;11.01;64.77;100124.76;107782;1271;94776;-72
2022/05/14 04:21:52;;;;;;;10.10;5.40;;;;;;;11.01;64.62;100128.05;107429;1268;137598;-71
2022/05/14 04:24:24;;;;;;;10.80;5.30;;;;;;;11.02;64.59;100123.31;106399;1268;111658;-71
2022/05/14 04:26:56;;;;;;;9.30;5.00;;;;;;;11.01;64.65;100125.99;106833;1271;109435;-71
2022/05/14 04:29:29;;;;;;;8.80;5.30;;;;;;;11.01;64.68;100129.27;106613;1270;182556;-71
2022/05/14 04:32:01;;;;;;;10.80;5.50;;;;;;;10.99;64.66;100134.42;106464;1268;96503;-71
2022/05/14 04:34:33;;;;;;;9.10;4.60;;;;;;;10.96;64.61;100139.02;106318;1268;138894;-71
2022/05/14 04:37:06;;;;;;;8.30;4.80;;;;;;;10.96;64.63;100138.16;106460;1268;110916;-71
2022/05/14 04:39:39;;;;;;;9.60;5.00;;;;;;;10.97;64.76;100136.20;106622;1271;138504;-70
2022/05/14 04:42:12;;;;;;;8.10;5.10;;;;;;;11.02;64.70;100134.81;106560;1268;109419;-71
2022/05/14 04:44:45;;;;;;;12.30;5.20;;;;;;;11.07;64.77;100132.17;107237;1268;97085;-71
2022/05/14 04:47:18;;;;;;;7.70;5.10;;;;;;;11.17;64.76;100125.05;106327;1268;138612;-71
2022/05/14 04:49:51;;;;;;;9.70;5.00;;;;;;;11.20;64.70;100125.61;107948;1268;110928;-71
2022/05/14 04:52:24;;;;;;;9.20;5.50;;;;;;;11.26;64.51;100124.89;107809;1268;137733;-72
2022/05/14 04:54:56;;;;;;;8.40;5.40;;;;;;;11.28;64.44;100124.27;106396;1270;105816;-71
2022/05/14 04:57:29;;;;;;;14.90;5.40;;;;;;;11.27;64.37;100126.20;106998;1268;137858;-71
2022/05/14 05:00:02;;;;;;;9.10;5.40;;;;;;;11.27;64.48;100128.30;107914;1268;94589;-71
2022/05/14 05:05:28;;;;;;;9.60;4.60;;;;;;;11.39;64.30;100124.06;107722;1270;138590;-72
2022/05/14 05:08:01;;;;;;;10.10;4.70;;;;;;;11.41;64.37;100124.16;107955;1268;109775;-72
2022/05/14 05:10:34;;;;;;;7.50;4.50;;;;;;;11.41;64.11;100127.61;107807;1268;138513;-72
2022/05/14 05:13:08;;;;;;;8.60;5.00;;;;;;;11.44;64.27;100130.62;107958;1268;94845;-70
2022/05/14 05:15:41;;;;;;;7.60;4.90;;;;;;;11.47;64.25;100130.85;107107;1268;137808;-71
2022/05/14 05:18:14;;;;;;;10.00;5.40;;;;;;;11.52;64.31;100131.57;107960;1268;108910;-71
2022/05/14 05:20:49;;;;;;;10.00;5.50;;;;;;;11.55;64.23;100127.29;106988;1268;108774;-71
2022/05/14 05:23:24;;;;;;;9.60;6.00;;;;;;;11.58;64.21;100130.80;106374;1268;137750;-70
2022/05/14 05:25:57;;;;;;;12.30;5.30;;;;;;;11.58;64.27;100133.10;106478;1268;96500;-71
2022/05/14 05:28:30;;;;;;;12.10;4.90;;;;;;;11.58;64.30;100132.39;106338;1268;138407;-71
2022/05/14 05:31:02;;;;;;;8.40;4.90;;;;;;;11.58;64.25;100129.61;106468;1268;109193;-70
2022/05/14 05:33:35;;;;;;;8.00;4.60;;;;;;;11.61;64.39;100118.70;107737;1268;138810;-71
2022/05/14 05:36:08;;;;;;;8.20;4.70;;;;;;;11.66;64.36;100108.91;107869;1268;95211;-70
2022/05/14 05:38:40;;;;;;;9.50;4.90;;;;;;;11.76;64.44;100110.95;107961;1268;94811;-70
2022/05/14 05:41:12;;;;;;;13.00;5.00;;;;;;;11.84;64.18;100106.32;107860;1268;137681;-71
2022/05/14 05:43:44;;;;;;;7.50;5.10;;;;;;;11.89;63.80;100101.44;107940;1268;109043;-71
2022/05/14 05:46:17;;;;;;;9.60;5.30;;;;;;;11.93;63.71;100098.84;107812;1268;137792;-71
2022/05/14 05:48:49;;;;;;;10.50;5.40;;;;;;;12.00;63.52;100093.98;107917;1268;94617;-70
2022/05/14 05:51:21;;;;;;;8.40;5.10;;;;;;;12.13;63.41;100096.61;107826;1268;138682;-70
2022/05/14 05:56:51;;;;;;;8.80;4.70;;;;;;;12.91;62.29;100095.20;107952;1268;107702;-70
2022/05/14 05:59:24;;;;;;;9.00;5.60;;;;;;;13.10;61.80;100091.73;107822;1268;138350;-71
2022/05/14 06:01:57;;;;;;;10.20;5.40;;;;;;;13.31;61.41;100087.33;107965;1266;94505;-70
2022/05/14 06:04:29;;;;;;;8.90;4.80;;;;;;;13.70;61.10;100084.61;107864;1268;138329;-71
2022/05/14 06:07:01;;;;;;;10.40;4.40;;;;;;;14.98;59.43;100079.02;107191;1268;109734;-70
2022/05/14 06:09:33;;;;;;;6.90;4.20;;;;;;;16.09;57.50;100071.02;106364;1271;139921;-71
2022/05/14 06:12:06;;;;;;;13.70;4.50;;;;;;;16.66;55.85;100071.02;106479;1268;108247;-70
2022/05/14 06:14:39;;;;;;;8.10;3.50;;;;;;;17.61;54.62;100065.10;107966;1268;94747;-70
2022/05/14 06:17:11;;;;;;;6.60;3.60;;;;;;;18.52;52.90;100067.92;107882;1268;138939;-70
2022/05/14 06:19:43;;;;;;;8.30;4.50;;;;;;;18.95;51.23;100081.02;106958;1268;107808;-70
2022/05/14 06:22:15;;;;;;;9.20;4.10;;;;;;;18.55;50.19;100083.88;106392;1271;137690;-70
2022/05/14 06:24:48;;;;;;;7.40;3.90;;;;;;;17.93;50.35;100084.34;106518;1268;109005;-70
2022/05/14 06:27:20;;;;;;;8.30;3.90;;;;;;;17.33;50.87;100088.68;106660;1268;137949;-69
2022/05/14 06:29:52;;;;;;;9.50;4.30;;;;;;;16.83;51.30;100097.92;106549;1268;96976;-70
2022/05/14 06:32:24;;;;;;;6.90;4.30;;;;;;;16.38;52.07;100101.61;106481;1268;110315;-69
2022/05/14 06:34:56;;;;;;;8.50;4.60;;;;;;;16.06;52.70;100095.58;107843;1268;137840;-70
2022/05/14 06:37:28;;;;;;;11.60;4.60;;;;;;;15.75;53.03;100093.14;107820;1268;107606;-70
2022/05/14 06:40:01;;;;;;;9.80;4.40;;;;;;;15.51;53.62;100094.23;106352;1268;138300;-70
2022/05/14 06:42:35;;;;;;;9.70;4.40;;;;;;;15.34;53.99;100092.34;107961;1267;94700;-71
2022/05/14 06:45:08;;;;;;;10.50;4.20;;;;;;;15.15;54.23;100090.61;107869;1266;138634;-70
2022/05/14 06:47:41;;;;;;;10.10;4.70;;;;;;;14.97;54.43;100090.18;107950;1268;108925;-70
2022/05/14 06:50:14;;;;;;;7.10;4.20;;;;;;;14.82;54.86;100095.48;107927;1268;108954;-70
2022/05/14 06:52:49;;;;;;;7.00;4.30;;;;;;;14.71;55.16;100096.42;107846;1268;139874;-70
2022/05/14 06:55:24;;;;;;;11.10;4.50;;;;;;;14.56;55.62;100090.91;107365;1268;95100;-70
2022/05/14 06:57:57;;;;;;;8.30;4.40;;;;;;;14.41;55.94;100089.56;107862;1267;138244;-70
2022/05/14 07:00:29;;;;;;;9.20;4.40;;;;;;;14.29;56.28;100087.86;107249;1270;107839;-71
2022/05/14 07:08:38;;;;;;;9.60;4.70;;;;;;;14.13;57.18;100079.72;106488;1268;96994;-70
2022/05/14 07:11:11;;;;;;;13.00;5.90;;;;;;;14.13;57.30;100082.86;106389;1268;137511;-69
2022/05/14 07:13:44;;;;;;;8.90;4.30;;;;;;;14.17;57.58;100082.70;107512;1268;108990;-70
2022/05/14 07:16:19;;;;;;;11.80;4.70;;;;;;;14.20;57.54;100083.41;106337;1268;138091;-71
2022/05/14 07:18:51;;;;;;;9.10;4.60;;;;;;;14.27;57.73;100081.31;106404;1268;96942;-70
2022/05/14 07:21:23;;;;;;;10.10;4.70;;;;;;;14.43;57.73;100082.45;106409;1268;138001;-70
2022/05/14 07:23:56;;;;;;;8.90;4.20;;;;;;;14.60;57.29;100078.45;106350;1268;111546;-71
2022/05/14 07:26:28;;;;;;;8.40;4.00;;;;;;;14.68;56.80;100082.58;106469;1268;108743;-71
2022/05/14 07:29:01;;;;;;;11.90;4.30;;;;;;;14.74;56.66;100079.98;106293;1268;137844;-71
2022/05/14 07:31:33;;;;;;;13.50;4.30;;;;;;;14.86;56.59;100084.94;106425;1268;96494;-69
2022/05/14 07:34:06;;;;;;;11.60;4.20;;;;;;;15.00;56.46;100078.96;107876;1268;138129;-70
2022/05/14 07:36:43;;;;;;;10.20;3.90;;;;;;;15.18;56.19;100071.03;107584;1268;108226;-70
2022/05/14 07:39:18;;;;;;;11.60;4.20;;;;;;;15.32;55.85;100069.56;106370;1268;138643;-70
2022/05/14 07:41:54;;;;;;;7.70;4.20;;;;;;;15.54;55.58;100070.97;107583;1268;109171;-68
2022/05/14 07:44:30;;;;;;;12.50;4.70;;;;;;;15.85;54.91;100069.41;106783;1268;96487;-69
2022/05/14 07:47:03;;;;;;;8.80;4.70;;;;;;;16.15;54.56;100071.18;107683;1268;138508;-69
2022/05/14 07:49:36;;;;;;;8.60;4.20;;;;;;;16.57;53.98;100066.80;106627;1268;108639;-70
2022/05/14 07:52:09;;;;;;;8.40;4.10;;;;;;;17.28;52.65;100052.46;107879;1268;137835;-69
2022/05/14 07:54:41;;;;;;;9.80;4.00;;;;;;;18.69;51.11;100051.56;107973;1267;108902;-70
2022/05/14 07:57:13;;;;;;;8.10;3.80;;;;;;;20.23;48.93;100054.30;107839;1268;138255;-70
2022/05/14 07:59:46;;;;;;;8.20;4.10;;;;;;;21.26;47.78;100046.48;107930;1268;94471;-70
2022/05/14 08:02:28;;;;;;;7.50;3.60;;;;;;;22.78;45.18;100041.67;107961;1267;111142;-70
2022/05/14 08:05:01;;;;;;;7.20;3.20;;;;;;;23.33;43.04;100035.48;106890;1268;137716;-70
2022/05/14 08:07:34;;;;;;;10.90;3.90;;;;;;;23.17;41.96;100041.50;107973;1268;108493;-70
2022/05/14 08:10:09;;;;;;;9.00;3.60;;;;;;;22.57;41.31;100041.02;107857;1268;137872;-70
2022/05/14 08:12:43;;;;;;;7.00;3.60;;;;;;;21.81;41.50;100036.95;107998;1268;94875;-70
2022/05/14 08:15:17;;;;;;;7.10;4.10;;;;;;;21.03;42.11;100032.56;107860;1268;139226;-71
2022/05/14 08:17:50;;;;;;;10.10;3.50;;;;;;;20.42;42.96;100035.55;107969;1267;109061;-71
2022/05/14 08:20:23;;;;;;;6.80;3.70;;;;;;;19.71;43.29;100029.41;107972;1268;109309;-71
2022/05/14 08:25:45;;;;;;;7.90;4.30;;;;;;;18.33;45.36;100032.05;106508;1268;96484;-71
2022/05/14 08:28:17;;;;;;;9.80;4.10;;;;;;;17.97;46.09;100028.10;106393;1268;138558;-71
2022/05/14 08:30:50;;;;;;;10.10;4.30;;;;;;;17.72;46.77;100030.48;106523;1271;108373;-71
2022/05/14 08:33:22;;;;;;;11.90;4.30;;;;;;;17.46;47.21;100028.80;106324;1271;138067;-70
2022/05/14 08:35:54;;;;;;;11.00;4.60;;;;;;;17.15;47.55;100025.50;106410;1271;96561;-69
2022/05/14 08:38:26;;;;;;;11.20;4.40;;;;;;;16.83;48.10;100026.13;107058;1268;95581;-70
2022/05/14 08:41:00;;;;;;;11.70;4.10;;;;;;;16.52;48.57;100037.08;106352;1268;137808;-70
2022/05/14 08:43:44;;;;;;;9.30;4.00;;;;;;;16.27;49.03;100039.46;107965;1267;108628;-71
2022/05/14 08:46:19;;;;;;;8.90;4.10;;;;;;;16.03;49.39;100046.28;107772;1270;137646;-70
2022/05/14 08:48:54;;;;;;;12.20;4.50;;;;;;;15.81;49.66;100045.98;106552;1270;96490;-71
2022/05/14 08:51:32;;;;;;;8.80;4.10;;;;;;;15.62;50.12;100051.06;106370;1268;138044;-70
2022/05/14 08:54:06;;;;;;;13.60;4.20;;;;;;;15.54;50.36;100050.63;107541;1266;111178;-72
2022/05/14 08:56:43;;;;;;;11.60;4.60;;;;;;;15.52;50.64;100058.61;107914;1268;106511;-72
2022/05/14 08:59:44;;;;;;;15.30;5.10;;;;;;;15.57;50.92;100052.17;107858;1266;138630;-72
2022/05/14 09:02:16;;;;;;;;;;;;;;;15.65;50.66;100049.52;106178;1273;96475;-72
2022/05/14 09:04:50;;;;;;;10.10;4.20;;;;;;;15.70;50.82;100056.06;107560;1273;124596;-72
2022/05/14 09:07:23;;;;;;;14.90;4.70;;;;;;;15.85;50.86;100058.58;107676;1273;109741;-72
2022/05/14 09:09:57;;;;;;;12.60;4.40;;;;;;;16.00;50.46;100052.10;107563;1273;138529;-71
2022/05/14 09:12:32;;;;;;;10.30;3.80;;;;;;;16.08;50.22;100052.87;106593;1273;108022;-72
2022/05/14 09:15:08;;;;;;;10.10;3.70;;;;;;;16.19;50.03;100049.73;106235;1273;96616;-70
2022/05/14 09:17:40;;;;;;;11.20;3.30;;;;;;;16.31;49.31;100046.92;106384;1273;96571;-70
2022/05/14 09:20:25;;;;;;;11.60;2.90;;;;;;;16.44;49.05;100047.20;106216;1274;111230;-70
2022/05/14 09:23:00;;;;;;;7.80;3.20;;;;;;;16.84;48.67;100041.16;106008;1273;137839;-70
2022/05/14 09:25:37;;;;;;;8.20;3.30;;;;;;;17.51;47.28;100033.39;106165;1274;108360;-70
2022/05/14 09:28:12;;;;;;;9.10;2.80;;;;;;;18.22;45.82;100035.23;106057;1273;138031;-70
2022/05/14 09:30:53;;;;;;;9.30;2.90;;;;;;;18.64;44.18;100041.40;106887;1273;96470;-70
2022/05/14 09:33:28;;;;;;;7.80;2.70;;;;;;;18.81;43.37;100040.55;106057;1273;137865;-71
2022/05/14 09:36:04;;;;;;;9.60;3.00;;;;;;;18.98;43.34;100043.23;106178;1273;108685;-69
2022/05/14 09:38:36;;;;;;;9.60;2.90;;;;;;;19.16;42.76;100044.25;106319;1273;108883;-71
2022/05/14 09:41:18;;;;;;;9.30;2.90;;;;;;;19.26;41.88;100044.42;107777;1268;137750;-71
2022/05/14 09:43:54;;;;;;;10.70;2.90;;;;;;;19.31;40.75;100037.92;107979;1268;94726;-71
2022/05/14 09:46:32;;;;;;;7.30;2.50;;;;;;;19.20;39.74;100041.70;107569;1268;138414;-71
2022/05/14 09:49:07;;;;;;;8.10;2.20;;;;;;;19.08;38.87;100037.48;106578;1266;108930;-69
2022/05/14 09:51:51;;;;;;;11.30;2.50;;;;;;;19.15;38.64;100038.89;107833;1268;138063;-69
2022/05/14 09:54:29;;;;;;;15.50;3.20;;;;;;;19.68;38.17;100029.58;107973;1267;94704;-70
2022/05/14 09:57:32;;;;;;;9.90;2.40;;;;;;;20.42;37.28;100020.91;107975;1268;95063;-69
2022/05/14 10:00:15;;;;;;;8.30;2.40;;;;;;;20.94;35.88;100018.43;107981;1268;111346;-71
2022/05/14 10:03:06;;;;;;;10.10;2.40;;;;;;;20.89;34.92;100019.39;107983;1268;109735;-71
2022/05/14 10:05:54;;;;;;;11.70;2.70;;;;;;;21.33;33.58;100006.46;107036;1268;109740;-70
2022/05/14 10:08:47;;;;;;;9.20;2.70;;;;;;;21.81;33.68;100008.45;106497;1268;96470;-70
2022/05/14 10:11:24;;;;;;;9.40;2.30;;;;;;;22.29;33.50;100005.98;107566;1268;137828;-70
2022/05/14 10:14:08;;;;;;;9.40;2.50;;;;;;;22.74;33.72;100005.67;107955;1268;110298;-70
2022/05/14 10:16:47;;;;;;;6.60;2.30;;;;;;;22.95;32.95;99996.11;107867;1268;137991;-70
2022/05/14 10:19:36;;;;;;;9.80;2.40;;;;;;;22.78;32.51;100005.69;107940;1268;108155;-71
2022/05/14 10:22:13;;;;;;;9.90;2.70;;;;;;;22.38;32.44;100005.21;107444;1268;138109;-71
2022/05/14 10:28:06;;;;;;;11.40;2.70;;;;;;;22.22;32.83;99991.52;106403;1268;137680;-70
2022/05/14 10:30:48;;;;;;;7.20;2.40;;;;;;;21.87;33.00;99994.46;106498;1268;107038;-70
2022/05/14 10:33:24;;;;;;;9.50;2.40;;;;;;;21.42;33.08;99990.54;106320;1268;138805;-70
2022/05/14 10:36:03;;;;;;;10.30;2.60;;;;;;;21.00;34.05;99993.93;107948;1268;94653;-71
2022/05/14 10:38:53;;;;;;;11.60;2.80;;;;;;;20.75;34.69;99996.41;107988;1268;94642;-71
2022/05/14 10:41:32;;;;;;;13.90;2.40;;;;;;;20.43;33.79;99996.45;106370;1268;137362;-70
2022/05/14 10:44:10;;;;;;;7.50;2.10;;;;;;;20.08;34.24;100001.05;107960;1267;108928;-71
2022/05/14 10:46:45;;;;;;;7.50;2.30;;;;;;;19.93;34.94;99996.16;107762;1268;138179;-71
2022/05/14 10:49:28;;;;;;;8.20;2.50;;;;;;;19.81;34.76;100004.28;107908;1270;94788;-71
2022/05/14 10:52:01;;;;;;;11.30;2.40;;;;;;;19.63;35.16;100001.96;107873;1268;137522;-71
2022/05/14 10:54:35;;;;;;;11.30;2.40;;;;;;;19.41;34.91;99995.75;106734;1268;111268;-71
2022/05/14 10:57:31;;;;;;;18.10;2.80;;;;;;;19.08;34.76;99984.41;106330;1270;138651;-71
2022/05/14 11:00:19;;;;;;;18.50;2.80;;;;;;;18.71;35.03;99986.45;107662;1268;108835;-71
2022/05/14 11:02:59;;;;;;;15.50;2.90;;;;;;;18.47;35.58;99986.05;107921;1268;94700;-71
2022/05/14 11:05:49;;;;;;;9.30;2.50;;;;;;;18.46;36.36;99998.44;107978;1268;94792;-70
2022/05/14 11:08:32;;;;;;;12.10;2.80;;;;;;;18.76;36.43;99995.30;107996;1268;111436;-71
2022/05/14 11:11:08;;;;;;;6.30;2.40;;;;;;;19.04;36.13;99995.42;107851;1268;137670;-71
2022/05/14 11:13:40;;;;;;;14.40;3.40;;;;;;;19.25;35.81;99998.69;107930;1268;108772;-71
2022/05/14 11:16:14;;;;;;;9.90;2.60;;;;;;;19.38;35.87;99999.34;106559;1268;139467;-72
2022/05/14 11:18:50;;;;;;;11.30;2.30;;;;;;;19.46;35.83;100004.38;106802;1268;96482;-72
2022/05/14 11:21:33;;;;;;;5.10;2.10;;;;;;;19.50;35.66;100007.95;106382;1268;138008;-70
2022/05/14 11:24:07;;;;;;;11.90;3.50;;;;;;;19.38;35.59;100008.15;106535;1268;108835;-71
2022/05/14 11:26:49;;;;;;;6.60;2.50;;;;;;;19.24;35.58;100008.97;107451;1268;108984;-70
2022/05/14 11:29:25;;;;;;;9.80;2.60;;;;;;;19.03;35.67;100016.14;106480;1270;139099;-71
2022/05/14 11:32:12;;;;;;;9.90;3.10;;;;;;;18.84;35.93;100012.16;107966;1268;96201;-70
2022/05/14 11:34:55;;;;;;;12.00;2.80;;;;;;;18.71;36.22;100013.48;107809;1267;138287;-70
2022/05/14 11:37:32;;;;;;;10.60;2.50;;;;;;;18.54;36.34;100013.39;107966;1268;106771;-71
2022/05/14 11:40:17;;;;;;;9.70;2.60;;;;;;;18.45;36.93;100021.76;107847;1267;138887;-71
2022/05/14 11:42:52;;;;;;;7.70;2.40;;;;;;;18.43;36.84;100012.50;107933;1267;96114;-70
2022/05/14 11:45:29;;;;;;;9.50;2.70;;;;;;;18.40;37.02;100023.64;107869;1267;138169;-70
2022/05/14 11:48:06;;;;;;;6.70;2.50;;;;;;;18.48;37.40;100019.73;106781;1268;111508;-70
2022/05/14 11:50:52;;;;;;;8.50;2.40;;;;;;;18.60;37.57;100025.95;106469;1268;108253;-72
2022/05/14 11:53:32;;;;;;;6.30;2.30;;;;;;;18.68;37.24;100025.82;107762;1268;137746;-70
2022/05/14 11:56:09;;;;;;;9.20;2.40;;;;;;;18.66;37.00;100026.42;107944;1267;95738;-69
2022/05/14 11:58:46;;;;;;;9.30;2.30;;;;;;;18.60;36.79;100022.61;107829;1268;138021;-69
2022/05/14 12:01:23;;;;;;;12.20;2.80;;;;;;;18.55;36.96;100030.59;107957;1267;111266;-70
2022/05/14 12:03:59;;;;;;;8.40;2.80;;;;;;;18.55;37.16;100028.64;107338;1267;138219;-70
2022/05/14 12:06:59;;;;;;;7.80;2.70;;;;;;;18.54;37.42;100036.05;106689;1268;107846;-71